sensor_id;sensor_type;location;lat;lon;timestamp;P1;durP1;ratioP1;P2;durP2;ratioP2
38715;SDS011;24833;49.324;8.694;2023-10-19T00:00:42;14.93;;;10.43;;
38715;SDS011;24833;49.324;8.694;2023-10-19T00:03:14;13.10;;;9.50;;
38715;SDS011;24833;49.324;8.694;2023-10-19T00:05:45;8.80;;;7.90;;
38715;SDS011;24833;49.324;8.694;2023-10-19T00:08:15;10.87;;;8.13;;
38715;SDS011;24833;49.324;8.694;2023-10-19T00:10:50;11.18;;;9.95;;
38715;SDS011;24833;49.324;8.694;2023-10-19T00:13:29;12.35;;;10.55;;
38715;SDS011;24833;49.324;8.694;2023-10-19T00:15:57;11.13;;;9.93;;
38715;SDS011;24833;49.324;8.694;2023-10-19T00:18:24;10.00;;;8.82;;
38715;SDS011;24833;49.324;8.694;2023-10-19T00:20:52;9.52;;;7.80;;
38715;SDS011;24833;49.324;8.694;2023-10-19T00:23:26;8.73;;;7.85;;
38715;SDS011;24833;49.324;8.694;2023-10-19T00:26:00;12.63;;;9.73;;
38715;SDS011;24833;49.324;8.694;2023-10-19T00:28:45;10.65;;;9.43;;
38715;SDS011;24833;49.324;8.694;2023-10-19T00:31:19;10.38;;;9.10;;
38715;SDS011;24833;49.324;8.694;2023-10-19T00:33:49;9.75;;;8.48;;
38715;SDS011;24833;49.324;8.694;2023-10-19T00:36:21;12.65;;;10.23;;
38715;SDS011;24833;49.324;8.694;2023-10-19T00:38:50;13.32;;;11.20;;
38715;SDS011;24833;49.324;8.694;2023-10-19T00:41:23;11.48;;;10.30;;
38715;SDS011;24833;49.324;8.694;2023-10-19T00:43:58;13.57;;;11.48;;
38715;SDS011;24833;49.324;8.694;2023-10-19T00:46:37;13.50;;;10.82;;
38715;SDS011;24833;49.324;8.694;2023-10-19T00:49:09;13.80;;;11.93;;
38715;SDS011;24833;49.324;8.694;2023-10-19T00:51:43;14.73;;;13.15;;
38715;SDS011;24833;49.324;8.694;2023-10-19T00:54:29;13.85;;;12.38;;
38715;SDS011;24833;49.324;8.694;2023-10-19T00:57:03;13.10;;;11.30;;
38715;SDS011;24833;49.324;8.694;2023-10-19T00:59:36;13.20;;;11.48;;
38715;SDS011;24833;49.324;8.694;2023-10-19T01:02:21;13.05;;;10.38;;
38715;SDS011;24833;49.324;8.694;2023-10-19T01:04:56;13.02;;;11.65;;
38715;SDS011;24833;49.324;8.694;2023-10-19T01:07:27;12.43;;;10.68;;
38715;SDS011;24833;49.324;8.694;2023-10-19T01:09:57;12.13;;;10.52;;
38715;SDS011;24833;49.324;8.694;2023-10-19T01:12:26;12.17;;;10.87;;
38715;SDS011;24833;49.324;8.694;2023-10-19T01:15:15;13.02;;;11.63;;
38715;SDS011;24833;49.324;8.694;2023-10-19T01:17:56;12.15;;;10.85;;
38715;SDS011;24833;49.324;8.694;2023-10-19T01:20:29;15.15;;;10.38;;
38715;SDS011;24833;49.324;8.694;2023-10-19T01:22:59;11.15;;;8.55;;
38715;SDS011;24833;49.324;8.694;2023-10-19T01:28:14;14.23;;;12.57;;
38715;SDS011;24833;49.324;8.694;2023-10-19T01:30:44;14.18;;;11.77;;
38715;SDS011;24833;49.324;8.694;2023-10-19T01:33:12;11.85;;;10.65;;
38715;SDS011;24833;49.324;8.694;2023-10-19T01:35:40;12.07;;;10.48;;
38715;SDS011;24833;49.324;8.694;2023-10-19T01:38:27;13.95;;;12.50;;
38715;SDS011;24833;49.324;8.694;2023-10-19T01:43:42;12.77;;;11.48;;
38715;SDS011;24833;49.324;8.694;2023-10-19T01:46:11;12.63;;;10.50;;
38715;SDS011;24833;49.324;8.694;2023-10-19T01:48:49;11.32;;;9.32;;
38715;SDS011;24833;49.324;8.694;2023-10-19T01:51:22;10.57;;;9.32;;
38715;SDS011;24833;49.324;8.694;2023-10-19T01:53:55;11.35;;;9.20;;
38715;SDS011;24833;49.324;8.694;2023-10-19T01:56:23;12.13;;;10.65;;
38715;SDS011;24833;49.324;8.694;2023-10-19T01:58:51;12.75;;;10.98;;
38715;SDS011;24833;49.324;8.694;2023-10-19T02:01:20;11.75;;;9.18;;
38715;SDS011;24833;49.324;8.694;2023-10-19T02:03:58;9.73;;;7.72;;
38715;SDS011;24833;49.324;8.694;2023-10-19T02:06:28;10.38;;;7.70;;
38715;SDS011;24833;49.324;8.694;2023-10-19T02:11:53;10.27;;;8.43;;
38715;SDS011;24833;49.324;8.694;2023-10-19T02:14:27;14.00;;;10.20;;
38715;SDS011;24833;49.324;8.694;2023-10-19T02:16:59;15.88;;;12.18;;
38715;SDS011;24833;49.324;8.694;2023-10-19T02:19:29;11.63;;;9.40;;
38715;SDS011;24833;49.324;8.694;2023-10-19T02:21:57;14.00;;;12.57;;
38715;SDS011;24833;49.324;8.694;2023-10-19T02:24:38;12.23;;;10.25;;
38715;SDS011;24833;49.324;8.694;2023-10-19T02:27:06;10.60;;;7.68;;
38715;SDS011;24833;49.324;8.694;2023-10-19T02:29:39;11.05;;;7.72;;
38715;SDS011;24833;49.324;8.694;2023-10-19T02:32:07;13.13;;;9.52;;
38715;SDS011;24833;49.324;8.694;2023-10-19T02:34:35;11.23;;;7.30;;
38715;SDS011;24833;49.324;8.694;2023-10-19T02:37:02;11.95;;;10.65;;
38715;SDS011;24833;49.324;8.694;2023-10-19T02:39:29;8.80;;;6.90;;
38715;SDS011;24833;49.324;8.694;2023-10-19T02:41:57;10.20;;;8.13;;
38715;SDS011;24833;49.324;8.694;2023-10-19T02:44:27;14.43;;;10.32;;
38715;SDS011;24833;49.324;8.694;2023-10-19T02:46:57;11.82;;;9.65;;
38715;SDS011;24833;49.324;8.694;2023-10-19T02:49:32;11.50;;;9.75;;
38715;SDS011;24833;49.324;8.694;2023-10-19T02:52:04;14.82;;;10.00;;
38715;SDS011;24833;49.324;8.694;2023-10-19T02:54:32;13.52;;;10.73;;
38715;SDS011;24833;49.324;8.694;2023-10-19T02:57:01;11.88;;;9.43;;
38715;SDS011;24833;49.324;8.694;2023-10-19T02:59:33;9.82;;;7.35;;
38715;SDS011;24833;49.324;8.694;2023-10-19T03:02:00;17.42;;;12.20;;
38715;SDS011;24833;49.324;8.694;2023-10-19T03:04:42;11.23;;;10.00;;
38715;SDS011;24833;49.324;8.694;2023-10-19T03:07:11;11.13;;;8.77;;
38715;SDS011;24833;49.324;8.694;2023-10-19T03:09:39;10.52;;;9.18;;
38715;SDS011;24833;49.324;8.694;2023-10-19T03:12:08;15.20;;;10.48;;
38715;SDS011;24833;49.324;8.694;2023-10-19T03:14:37;12.35;;;8.93;;
38715;SDS011;24833;49.324;8.694;2023-10-19T03:17:04;14.85;;;10.80;;
38715;SDS011;24833;49.324;8.694;2023-10-19T03:19:34;11.30;;;9.95;;
38715;SDS011;24833;49.324;8.694;2023-10-19T03:22:01;13.55;;;9.77;;
38715;SDS011;24833;49.324;8.694;2023-10-19T03:24:32;13.98;;;8.82;;
38715;SDS011;24833;49.324;8.694;2023-10-19T03:27:03;12.65;;;9.68;;
38715;SDS011;24833;49.324;8.694;2023-10-19T03:29:43;10.82;;;8.00;;
38715;SDS011;24833;49.324;8.694;2023-10-19T03:32:13;12.27;;;8.50;;
38715;SDS011;24833;49.324;8.694;2023-10-19T03:37:14;10.93;;;8.68;;
38715;SDS011;24833;49.324;8.694;2023-10-19T03:39:43;8.95;;;7.38;;
38715;SDS011;24833;49.324;8.694;2023-10-19T03:42:12;10.57;;;8.40;;
38715;SDS011;24833;49.324;8.694;2023-10-19T03:44:42;7.97;;;6.80;;
38715;SDS011;24833;49.324;8.694;2023-10-19T03:47:16;8.13;;;7.05;;
38715;SDS011;24833;49.324;8.694;2023-10-19T03:49:47;9.07;;;7.35;;
38715;SDS011;24833;49.324;8.694;2023-10-19T03:52:17;7.53;;;6.22;;
38715;SDS011;24833;49.324;8.694;2023-10-19T03:54:44;7.95;;;7.15;;
38715;SDS011;24833;49.324;8.694;2023-10-19T03:57:14;8.32;;;7.40;;
38715;SDS011;24833;49.324;8.694;2023-10-19T03:59:46;10.70;;;8.77;;
38715;SDS011;24833;49.324;8.694;2023-10-19T04:02:22;10.32;;;8.35;;
38715;SDS011;24833;49.324;8.694;2023-10-19T04:04:51;8.68;;;6.70;;
38715;SDS011;24833;49.324;8.694;2023-10-19T04:07:18;7.18;;;6.25;;
38715;SDS011;24833;49.324;8.694;2023-10-19T04:09:53;9.18;;;6.47;;
38715;SDS011;24833;49.324;8.694;2023-10-19T04:12:30;12.25;;;7.38;;
38715;SDS011;24833;49.324;8.694;2023-10-19T04:14:58;13.18;;;7.95;;
38715;SDS011;24833;49.324;8.694;2023-10-19T04:17:36;8.45;;;7.55;;
38715;SDS011;24833;49.324;8.694;2023-10-19T04:20:05;6.47;;;5.72;;
38715;SDS011;24833;49.324;8.694;2023-10-19T04:22:46;8.43;;;6.20;;
38715;SDS011;24833;49.324;8.694;2023-10-19T04:25:19;7.45;;;6.32;;
38715;SDS011;24833;49.324;8.694;2023-10-19T04:27:47;6.97;;;5.93;;
38715;SDS011;24833;49.324;8.694;2023-10-19T04:30:16;8.48;;;6.25;;
38715;SDS011;24833;49.324;8.694;2023-10-19T04:32:47;10.57;;;6.75;;
38715;SDS011;24833;49.324;8.694;2023-10-19T04:35:17;8.93;;;6.47;;
38715;SDS011;24833;49.324;8.694;2023-10-19T04:37:52;8.95;;;5.60;;
38715;SDS011;24833;49.324;8.694;2023-10-19T04:40:20;8.40;;;6.40;;
38715;SDS011;24833;49.324;8.694;2023-10-19T04:42:51;9.73;;;6.05;;
38715;SDS011;24833;49.324;8.694;2023-10-19T04:45:21;7.05;;;5.32;;
38715;SDS011;24833;49.324;8.694;2023-10-19T04:47:51;7.93;;;5.43;;
38715;SDS011;24833;49.324;8.694;2023-10-19T04:50:19;7.40;;;5.05;;
38715;SDS011;24833;49.324;8.694;2023-10-19T04:52:47;7.38;;;5.45;;
38715;SDS011;24833;49.324;8.694;2023-10-19T04:55:14;7.30;;;5.80;;
38715;SDS011;24833;49.324;8.694;2023-10-19T04:57:41;6.10;;;4.97;;
38715;SDS011;24833;49.324;8.694;2023-10-19T05:00:08;8.25;;;5.82;;
38715;SDS011;24833;49.324;8.694;2023-10-19T05:02:40;7.40;;;5.75;;
38715;SDS011;24833;49.324;8.694;2023-10-19T05:05:08;9.52;;;6.65;;
38715;SDS011;24833;49.324;8.694;2023-10-19T05:07:35;8.07;;;6.75;;
38715;SDS011;24833;49.324;8.694;2023-10-19T05:10:02;9.48;;;7.43;;
38715;SDS011;24833;49.324;8.694;2023-10-19T05:12:31;9.48;;;7.63;;
38715;SDS011;24833;49.324;8.694;2023-10-19T05:14:59;10.80;;;7.88;;
38715;SDS011;24833;49.324;8.694;2023-10-19T05:17:26;10.85;;;8.63;;
38715;SDS011;24833;49.324;8.694;2023-10-19T05:19:54;10.57;;;8.27;;
38715;SDS011;24833;49.324;8.694;2023-10-19T05:22:22;9.98;;;8.32;;
38715;SDS011;24833;49.324;8.694;2023-10-19T05:24:51;10.30;;;7.93;;
38715;SDS011;24833;49.324;8.694;2023-10-19T05:27:19;10.50;;;8.15;;
38715;SDS011;24833;49.324;8.694;2023-10-19T05:29:46;8.88;;;7.93;;
38715;SDS011;24833;49.324;8.694;2023-10-19T05:32:13;11.85;;;8.77;;
38715;SDS011;24833;49.324;8.694;2023-10-19T05:34:40;9.65;;;8.65;;
38715;SDS011;24833;49.324;8.694;2023-10-19T05:37:08;10.85;;;8.43;;
38715;SDS011;24833;49.324;8.694;2023-10-19T05:39:35;8.60;;;7.70;;
38715;SDS011;24833;49.324;8.694;2023-10-19T05:42:03;11.32;;;7.82;;
38715;SDS011;24833;49.324;8.694;2023-10-19T05:44:31;12.68;;;7.75;;
38715;SDS011;24833;49.324;8.694;2023-10-19T05:46:59;12.25;;;7.68;;
38715;SDS011;24833;49.324;8.694;2023-10-19T05:49:27;10.38;;;8.18;;
38715;SDS011;24833;49.324;8.694;2023-10-19T05:51:57;10.85;;;6.93;;
38715;SDS011;24833;49.324;8.694;2023-10-19T05:54:24;9.70;;;8.07;;
38715;SDS011;24833;49.324;8.694;2023-10-19T05:56:51;9.57;;;7.55;;
38715;SDS011;24833;49.324;8.694;2023-10-19T05:59:19;13.00;;;8.30;;
38715;SDS011;24833;49.324;8.694;2023-10-19T06:01:46;9.23;;;8.02;;
38715;SDS011;24833;49.324;8.694;2023-10-19T06:04:14;12.02;;;8.88;;
38715;SDS011;24833;49.324;8.694;2023-10-19T06:06:45;10.10;;;8.00;;
38715;SDS011;24833;49.324;8.694;2023-10-19T06:09:12;10.77;;;9.45;;
38715;SDS011;24833;49.324;8.694;2023-10-19T06:11:41;11.63;;;9.10;;
38715;SDS011;24833;49.324;8.694;2023-10-19T06:14:09;12.43;;;8.00;;
38715;SDS011;24833;49.324;8.694;2023-10-19T06:16:37;10.77;;;7.95;;
38715;SDS011;24833;49.324;8.694;2023-10-19T06:19:04;10.27;;;9.05;;
38715;SDS011;24833;49.324;8.694;2023-10-19T06:21:32;11.05;;;8.20;;
38715;SDS011;24833;49.324;8.694;2023-10-19T06:24:00;10.93;;;6.90;;
38715;SDS011;24833;49.324;8.694;2023-10-19T06:26:29;11.13;;;7.63;;
38715;SDS011;24833;49.324;8.694;2023-10-19T06:28:56;12.48;;;8.43;;
38715;SDS011;24833;49.324;8.694;2023-10-19T06:31:26;8.85;;;7.50;;
38715;SDS011;24833;49.324;8.694;2023-10-19T06:33:55;12.18;;;10.02;;
38715;SDS011;24833;49.324;8.694;2023-10-19T06:36:23;12.20;;;8.60;;
38715;SDS011;24833;49.324;8.694;2023-10-19T06:38:51;11.23;;;9.55;;
38715;SDS011;24833;49.324;8.694;2023-10-19T06:41:18;10.15;;;7.60;;
38715;SDS011;24833;49.324;8.694;2023-10-19T06:43:45;11.32;;;8.63;;
38715;SDS011;24833;49.324;8.694;2023-10-19T06:46:13;11.57;;;8.18;;
38715;SDS011;24833;49.324;8.694;2023-10-19T06:48:41;10.48;;;7.40;;
38715;SDS011;24833;49.324;8.694;2023-10-19T06:51:09;8.85;;;7.22;;
38715;SDS011;24833;49.324;8.694;2023-10-19T06:53:36;13.10;;;8.00;;
38715;SDS011;24833;49.324;8.694;2023-10-19T06:56:03;7.78;;;6.25;;
38715;SDS011;24833;49.324;8.694;2023-10-19T06:58:31;9.93;;;7.35;;
38715;SDS011;24833;49.324;8.694;2023-10-19T07:00:58;8.75;;;7.85;;
38715;SDS011;24833;49.324;8.694;2023-10-19T07:03:35;9.23;;;7.63;;
38715;SDS011;24833;49.324;8.694;2023-10-19T07:06:02;9.25;;;7.05;;
38715;SDS011;24833;49.324;8.694;2023-10-19T07:08:36;10.38;;;6.93;;
38715;SDS011;24833;49.324;8.694;2023-10-19T07:11:03;8.07;;;6.78;;
38715;SDS011;24833;49.324;8.694;2023-10-19T07:13:30;8.52;;;6.63;;
38715;SDS011;24833;49.324;8.694;2023-10-19T07:16:00;10.43;;;7.60;;
38715;SDS011;24833;49.324;8.694;2023-10-19T07:18:29;7.53;;;6.70;;
38715;SDS011;24833;49.324;8.694;2023-10-19T07:20:56;8.65;;;6.40;;
38715;SDS011;24833;49.324;8.694;2023-10-19T07:23:30;10.15;;;7.03;;
38715;SDS011;24833;49.324;8.694;2023-10-19T07:25:58;7.22;;;6.22;;
38715;SDS011;24833;49.324;8.694;2023-10-19T07:28:28;7.35;;;5.25;;
38715;SDS011;24833;49.324;8.694;2023-10-19T07:30:56;6.20;;;5.38;;
38715;SDS011;24833;49.324;8.694;2023-10-19T07:33:23;6.78;;;5.13;;
38715;SDS011;24833;49.324;8.694;2023-10-19T07:35:52;8.38;;;4.85;;
38715;SDS011;24833;49.324;8.694;2023-10-19T07:38:22;6.70;;;6.07;;
38715;SDS011;24833;49.324;8.694;2023-10-19T07:40:50;10.88;;;6.70;;
38715;SDS011;24833;49.324;8.694;2023-10-19T07:43:21;7.63;;;6.65;;
38715;SDS011;24833;49.324;8.694;2023-10-19T07:45:49;7.65;;;6.88;;
38715;SDS011;24833;49.324;8.694;2023-10-19T07:48:16;6.90;;;5.90;;
38715;SDS011;24833;49.324;8.694;2023-10-19T07:50:44;8.05;;;6.00;;
38715;SDS011;24833;49.324;8.694;2023-10-19T07:53:11;7.20;;;6.07;;
38715;SDS011;24833;49.324;8.694;2023-10-19T07:55:38;8.32;;;6.97;;
38715;SDS011;24833;49.324;8.694;2023-10-19T07:58:06;12.10;;;8.48;;
38715;SDS011;24833;49.324;8.694;2023-10-19T08:00:33;10.63;;;6.82;;
38715;SDS011;24833;49.324;8.694;2023-10-19T08:03:02;9.05;;;7.22;;
38715;SDS011;24833;49.324;8.694;2023-10-19T08:05:31;7.65;;;6.30;;
38715;SDS011;24833;49.324;8.694;2023-10-19T08:07:59;11.30;;;7.18;;
38715;SDS011;24833;49.324;8.694;2023-10-19T08:10:27;6.85;;;6.13;;
38715;SDS011;24833;49.324;8.694;2023-10-19T08:12:54;10.18;;;6.30;;
38715;SDS011;24833;49.324;8.694;2023-10-19T08:15:22;8.80;;;6.68;;
38715;SDS011;24833;49.324;8.694;2023-10-19T08:17:50;8.77;;;7.97;;
38715;SDS011;24833;49.324;8.694;2023-10-19T08:20:20;11.23;;;7.97;;
38715;SDS011;24833;49.324;8.694;2023-10-19T08:22:54;8.32;;;7.50;;
38715;SDS011;24833;49.324;8.694;2023-10-19T08:25:24;13.27;;;8.63;;
38715;SDS011;24833;49.324;8.694;2023-10-19T08:28:15;8.57;;;6.95;;
38715;SDS011;24833;49.324;8.694;2023-10-19T08:30:42;8.52;;;6.60;;
38715;SDS011;24833;49.324;8.694;2023-10-19T08:33:11;6.80;;;6.13;;
38715;SDS011;24833;49.324;8.694;2023-10-19T08:35:40;8.27;;;7.30;;
38715;SDS011;24833;49.324;8.694;2023-10-19T08:38:08;9.88;;;7.68;;
38715;SDS011;24833;49.324;8.694;2023-10-19T08:40:38;8.60;;;6.90;;
38715;SDS011;24833;49.324;8.694;2023-10-19T08:43:06;6.97;;;6.28;;
38715;SDS011;24833;49.324;8.694;2023-10-19T08:45:39;6.55;;;5.82;;
38715;SDS011;24833;49.324;8.694;2023-10-19T08:48:08;7.05;;;6.35;;
38715;SDS011;24833;49.324;8.694;2023-10-19T08:50:35;8.45;;;6.40;;
38715;SDS011;24833;49.324;8.694;2023-10-19T08:53:04;8.73;;;6.97;;
38715;SDS011;24833;49.324;8.694;2023-10-19T08:55:40;7.80;;;6.60;;
38715;SDS011;24833;49.324;8.694;2023-10-19T08:58:16;8.82;;;7.93;;
38715;SDS011;24833;49.324;8.694;2023-10-19T09:00:49;9.93;;;6.57;;
38715;SDS011;24833;49.324;8.694;2023-10-19T09:03:21;8.15;;;6.93;;
38715;SDS011;24833;49.324;8.694;2023-10-19T09:05:49;6.57;;;5.88;;
38715;SDS011;24833;49.324;8.694;2023-10-19T09:08:17;6.65;;;5.55;;
38715;SDS011;24833;49.324;8.694;2023-10-19T09:10:47;8.50;;;7.10;;
38715;SDS011;24833;49.324;8.694;2023-10-19T09:13:18;8.05;;;6.85;;
38715;SDS011;24833;49.324;8.694;2023-10-19T09:15:46;10.05;;;7.60;;
38715;SDS011;24833;49.324;8.694;2023-10-19T09:18:25;8.13;;;6.22;;
38715;SDS011;24833;49.324;8.694;2023-10-19T09:20:56;9.25;;;6.72;;
38715;SDS011;24833;49.324;8.694;2023-10-19T09:23:47;7.65;;;5.65;;
38715;SDS011;24833;49.324;8.694;2023-10-19T09:26:15;10.23;;;5.85;;
38715;SDS011;24833;49.324;8.694;2023-10-19T09:28:47;6.15;;;4.93;;
38715;SDS011;24833;49.324;8.694;2023-10-19T09:31:17;7.75;;;5.50;;
38715;SDS011;24833;49.324;8.694;2023-10-19T09:33:47;6.32;;;5.63;;
38715;SDS011;24833;49.324;8.694;2023-10-19T09:36:19;10.20;;;7.25;;
38715;SDS011;24833;49.324;8.694;2023-10-19T09:38:50;8.00;;;6.45;;
38715;SDS011;24833;49.324;8.694;2023-10-19T09:41:19;7.85;;;5.50;;
38715;SDS011;24833;49.324;8.694;2023-10-19T09:44:03;8.15;;;5.03;;
38715;SDS011;24833;49.324;8.694;2023-10-19T09:46:36;5.97;;;5.38;;
38715;SDS011;24833;49.324;8.694;2023-10-19T09:54:20;7.80;;;4.93;;
38715;SDS011;24833;49.324;8.694;2023-10-19T09:57:02;8.38;;;5.63;;
38715;SDS011;24833;49.324;8.694;2023-10-19T09:59:40;6.10;;;4.63;;
38715;SDS011;24833;49.324;8.694;2023-10-19T10:02:15;7.75;;;5.07;;
38715;SDS011;24833;49.324;8.694;2023-10-19T10:04:44;5.50;;;4.97;;
38715;SDS011;24833;49.324;8.694;2023-10-19T10:07:12;5.43;;;4.85;;
38715;SDS011;24833;49.324;8.694;2023-10-19T10:09:45;6.18;;;5.13;;
38715;SDS011;24833;49.324;8.694;2023-10-19T10:17:34;5.72;;;4.07;;
38715;SDS011;24833;49.324;8.694;2023-10-19T10:22:40;5.13;;;3.83;;
38715;SDS011;24833;49.324;8.694;2023-10-19T10:25:09;4.68;;;3.75;;
38715;SDS011;24833;49.324;8.694;2023-10-19T10:27:55;5.47;;;4.63;;
38715;SDS011;24833;49.324;8.694;2023-10-19T10:30:23;4.75;;;4.25;;
38715;SDS011;24833;49.324;8.694;2023-10-19T10:32:50;6.63;;;4.25;;
38715;SDS011;24833;49.324;8.694;2023-10-19T10:38:09;5.47;;;4.15;;
38715;SDS011;24833;49.324;8.694;2023-10-19T10:40:47;5.38;;;3.83;;
38715;SDS011;24833;49.324;8.694;2023-10-19T10:43:17;5.13;;;4.22;;
38715;SDS011;24833;49.324;8.694;2023-10-19T10:45:45;8.65;;;4.57;;
38715;SDS011;24833;49.324;8.694;2023-10-19T10:50:40;6.22;;;5.40;;
38715;SDS011;24833;49.324;8.694;2023-10-19T10:53:08;4.53;;;4.13;;
38715;SDS011;24833;49.324;8.694;2023-10-19T10:55:38;4.27;;;3.87;;
38715;SDS011;24833;49.324;8.694;2023-10-19T10:58:06;4.70;;;3.63;;
38715;SDS011;24833;49.324;8.694;2023-10-19T11:00:33;5.55;;;4.20;;
38715;SDS011;24833;49.324;8.694;2023-10-19T11:03:03;4.78;;;4.05;;
38715;SDS011;24833;49.324;8.694;2023-10-19T11:05:37;5.50;;;4.10;;
38715;SDS011;24833;49.324;8.694;2023-10-19T11:08:14;4.10;;;3.70;;
38715;SDS011;24833;49.324;8.694;2023-10-19T11:10:48;7.80;;;4.90;;
38715;SDS011;24833;49.324;8.694;2023-10-19T11:13:22;5.38;;;4.88;;
38715;SDS011;24833;49.324;8.694;2023-10-19T11:15:51;7.80;;;5.13;;
38715;SDS011;24833;49.324;8.694;2023-10-19T11:18:42;7.95;;;5.18;;
38715;SDS011;24833;49.324;8.694;2023-10-19T11:21:16;4.70;;;4.18;;
38715;SDS011;24833;49.324;8.694;2023-10-19T11:23:45;5.43;;;4.78;;
38715;SDS011;24833;49.324;8.694;2023-10-19T11:26:23;7.10;;;5.32;;
38715;SDS011;24833;49.324;8.694;2023-10-19T11:28:57;6.25;;;5.07;;
38715;SDS011;24833;49.324;8.694;2023-10-19T11:31:30;5.37;;;4.27;;
38715;SDS011;24833;49.324;8.694;2023-10-19T11:34:04;4.82;;;3.53;;
38715;SDS011;24833;49.324;8.694;2023-10-19T11:36:35;5.40;;;3.95;;
38715;SDS011;24833;49.324;8.694;2023-10-19T11:39:02;4.97;;;4.07;;
38715;SDS011;24833;49.324;8.694;2023-10-19T11:41:30;8.05;;;3.63;;
38715;SDS011;24833;49.324;8.694;2023-10-19T11:43:57;8.13;;;4.80;;
38715;SDS011;24833;49.324;8.694;2023-10-19T11:46:26;9.00;;;5.65;;
38715;SDS011;24833;49.324;8.694;2023-10-19T11:48:53;5.88;;;5.13;;
38715;SDS011;24833;49.324;8.694;2023-10-19T11:51:20;8.07;;;5.55;;
38715;SDS011;24833;49.324;8.694;2023-10-19T11:53:47;6.90;;;5.28;;
38715;SDS011;24833;49.324;8.694;2023-10-19T11:56:17;7.47;;;6.20;;
38715;SDS011;24833;49.324;8.694;2023-10-19T11:58:47;7.00;;;5.70;;
38715;SDS011;24833;49.324;8.694;2023-10-19T12:01:14;9.43;;;6.57;;
38715;SDS011;24833;49.324;8.694;2023-10-19T12:03:44;10.95;;;7.43;;
38715;SDS011;24833;49.324;8.694;2023-10-19T12:06:15;8.30;;;7.47;;
38715;SDS011;24833;49.324;8.694;2023-10-19T12:08:46;9.10;;;7.50;;
38715;SDS011;24833;49.324;8.694;2023-10-19T12:11:13;7.60;;;6.75;;
38715;SDS011;24833;49.324;8.694;2023-10-19T12:13:45;12.07;;;6.63;;
38715;SDS011;24833;49.324;8.694;2023-10-19T12:16:14;8.02;;;6.47;;
38715;SDS011;24833;49.324;8.694;2023-10-19T12:18:43;7.65;;;6.72;;
38715;SDS011;24833;49.324;8.694;2023-10-19T12:21:11;9.73;;;7.57;;
38715;SDS011;24833;49.324;8.694;2023-10-19T12:23:38;12.13;;;6.95;;
38715;SDS011;24833;49.324;8.694;2023-10-19T12:26:07;8.77;;;6.93;;
38715;SDS011;24833;49.324;8.694;2023-10-19T12:28:38;7.75;;;6.93;;
38715;SDS011;24833;49.324;8.694;2023-10-19T12:31:11;7.45;;;6.07;;
38715;SDS011;24833;49.324;8.694;2023-10-19T12:33:38;8.88;;;6.05;;
38715;SDS011;24833;49.324;8.694;2023-10-19T12:36:08;7.27;;;6.33;;
38715;SDS011;24833;49.324;8.694;2023-10-19T12:38:53;7.25;;;5.47;;
38715;SDS011;24833;49.324;8.694;2023-10-19T12:41:24;7.93;;;5.60;;
38715;SDS011;24833;49.324;8.694;2023-10-19T12:43:51;7.40;;;5.70;;
38715;SDS011;24833;49.324;8.694;2023-10-19T12:46:21;6.40;;;5.57;;
38715;SDS011;24833;49.324;8.694;2023-10-19T12:48:51;7.85;;;6.15;;
38715;SDS011;24833;49.324;8.694;2023-10-19T12:51:18;6.03;;;4.95;;
38715;SDS011;24833;49.324;8.694;2023-10-19T12:53:53;6.32;;;5.07;;
38715;SDS011;24833;49.324;8.694;2023-10-19T12:56:21;7.05;;;4.60;;
38715;SDS011;24833;49.324;8.694;2023-10-19T12:58:55;5.72;;;4.38;;
38715;SDS011;24833;49.324;8.694;2023-10-19T13:01:22;7.07;;;3.80;;
38715;SDS011;24833;49.324;8.694;2023-10-19T13:03:50;6.50;;;4.55;;
38715;SDS011;24833;49.324;8.694;2023-10-19T13:06:17;9.38;;;6.07;;
38715;SDS011;24833;49.324;8.694;2023-10-19T13:08:45;8.48;;;5.47;;
38715;SDS011;24833;49.324;8.694;2023-10-19T13:11:13;5.72;;;4.63;;
38715;SDS011;24833;49.324;8.694;2023-10-19T13:13:44;5.65;;;4.32;;
38715;SDS011;24833;49.324;8.694;2023-10-19T13:16:13;6.85;;;4.13;;
38715;SDS011;24833;49.324;8.694;2023-10-19T13:18:42;5.63;;;3.67;;
38715;SDS011;24833;49.324;8.694;2023-10-19T13:21:10;9.75;;;4.50;;
38715;SDS011;24833;49.324;8.694;2023-10-19T13:23:48;7.57;;;4.45;;
38715;SDS011;24833;49.324;8.694;2023-10-19T13:26:15;6.07;;;4.30;;
38715;SDS011;24833;49.324;8.694;2023-10-19T13:28:42;8.10;;;4.45;;
38715;SDS011;24833;49.324;8.694;2023-10-19T13:31:10;5.93;;;4.88;;
38715;SDS011;24833;49.324;8.694;2023-10-19T13:33:40;7.20;;;4.65;;
38715;SDS011;24833;49.324;8.694;2023-10-19T13:36:08;5.22;;;4.03;;
38715;SDS011;24833;49.324;8.694;2023-10-19T13:38:35;5.05;;;4.18;;
38715;SDS011;24833;49.324;8.694;2023-10-19T13:41:02;5.07;;;3.53;;
38715;SDS011;24833;49.324;8.694;2023-10-19T13:43:34;7.75;;;4.78;;
38715;SDS011;24833;49.324;8.694;2023-10-19T13:46:23;4.60;;;3.97;;
38715;SDS011;24833;49.324;8.694;2023-10-19T13:48:50;6.57;;;4.78;;
38715;SDS011;24833;49.324;8.694;2023-10-19T13:51:17;4.97;;;4.55;;
38715;SDS011;24833;49.324;8.694;2023-10-19T13:53:46;4.68;;;4.20;;
38715;SDS011;24833;49.324;8.694;2023-10-19T13:56:13;4.70;;;4.20;;
38715;SDS011;24833;49.324;8.694;2023-10-19T13:58:43;5.63;;;4.78;;
38715;SDS011;24833;49.324;8.694;2023-10-19T14:01:13;6.53;;;4.63;;
38715;SDS011;24833;49.324;8.694;2023-10-19T14:03:43;7.32;;;4.68;;
38715;SDS011;24833;49.324;8.694;2023-10-19T14:06:12;5.07;;;4.13;;
38715;SDS011;24833;49.324;8.694;2023-10-19T14:08:40;4.90;;;4.40;;
38715;SDS011;24833;49.324;8.694;2023-10-19T14:11:07;5.93;;;5.22;;
38715;SDS011;24833;49.324;8.694;2023-10-19T14:13:34;6.93;;;5.50;;
38715;SDS011;24833;49.324;8.694;2023-10-19T14:16:06;7.60;;;5.65;;
38715;SDS011;24833;49.324;8.694;2023-10-19T14:18:35;6.53;;;5.53;;
38715;SDS011;24833;49.324;8.694;2023-10-19T14:21:15;6.80;;;4.80;;
38715;SDS011;24833;49.324;8.694;2023-10-19T14:23:46;8.63;;;5.68;;
38715;SDS011;24833;49.324;8.694;2023-10-19T14:26:14;6.88;;;5.57;;
38715;SDS011;24833;49.324;8.694;2023-10-19T14:28:42;6.43;;;5.35;;
38715;SDS011;24833;49.324;8.694;2023-10-19T14:31:09;8.27;;;6.70;;
38715;SDS011;24833;49.324;8.694;2023-10-19T14:33:37;8.48;;;6.20;;
38715;SDS011;24833;49.324;8.694;2023-10-19T14:36:05;8.10;;;7.13;;
38715;SDS011;24833;49.324;8.694;2023-10-19T14:38:33;6.75;;;5.97;;
38715;SDS011;24833;49.324;8.694;2023-10-19T14:41:00;7.10;;;6.10;;
38715;SDS011;24833;49.324;8.694;2023-10-19T14:43:27;11.32;;;6.75;;
38715;SDS011;24833;49.324;8.694;2023-10-19T14:45:56;6.07;;;5.47;;
38715;SDS011;24833;49.324;8.694;2023-10-19T14:48:23;6.70;;;6.00;;
38715;SDS011;24833;49.324;8.694;2023-10-19T14:50:50;8.18;;;5.80;;
38715;SDS011;24833;49.324;8.694;2023-10-19T14:53:18;9.25;;;6.82;;
38715;SDS011;24833;49.324;8.694;2023-10-19T14:55:45;8.25;;;6.63;;
38715;SDS011;24833;49.324;8.694;2023-10-19T14:58:12;7.32;;;6.60;;
38715;SDS011;24833;49.324;8.694;2023-10-19T15:00:39;10.57;;;6.10;;
38715;SDS011;24833;49.324;8.694;2023-10-19T15:03:16;10.00;;;5.40;;
38715;SDS011;24833;49.324;8.694;2023-10-19T15:05:49;6.53;;;5.43;;
38715;SDS011;24833;49.324;8.694;2023-10-19T15:08:21;9.55;;;6.60;;
38715;SDS011;24833;49.324;8.694;2023-10-19T15:10:53;9.07;;;6.43;;
38715;SDS011;24833;49.324;8.694;2023-10-19T15:13:21;6.47;;;5.45;;
38715;SDS011;24833;49.324;8.694;2023-10-19T15:15:48;5.35;;;4.88;;
38715;SDS011;24833;49.324;8.694;2023-10-19T15:18:15;6.43;;;5.70;;
38715;SDS011;24833;49.324;8.694;2023-10-19T15:20:42;7.45;;;5.90;;
38715;SDS011;24833;49.324;8.694;2023-10-19T15:23:09;6.57;;;5.95;;
38715;SDS011;24833;49.324;8.694;2023-10-19T15:25:36;6.65;;;6.05;;
38715;SDS011;24833;49.324;8.694;2023-10-19T15:28:06;6.90;;;6.00;;